createdAt,value
2023-05-20T00:00:02.003Z,3.33
2023-05-20T00:02:29.827Z,2.78
2023-05-20T00:04:58.123Z,2.70
2023-05-20T00:07:29.001Z,2.55
2023-05-20T00:09:56.835Z,2.45
2023-05-20T00:12:24.418Z,2.85
2023-05-20T00:14:53.686Z,2.83
2023-05-20T00:17:21.881Z,2.97
2023-05-20T00:22:25.532Z,2.47
2023-05-20T00:24:53.113Z,2.85
2023-05-20T00:27:20.966Z,3.10
2023-05-20T00:29:49.285Z,2.55
2023-05-20T00:32:17.368Z,2.70
2023-05-20T00:34:45.164Z,2.60
2023-05-20T00:37:13.140Z,2.45
2023-05-20T00:42:16.997Z,2.65
2023-05-20T00:44:44.568Z,2.83
2023-05-20T00:47:12.786Z,2.53
2023-05-20T00:49:50.356Z,2.88
2023-05-20T00:54:50.167Z,2.53
2023-05-20T00:57:31.138Z,2.53
2023-05-20T00:59:59.521Z,2.35
2023-05-20T01:02:27.871Z,2.50
2023-05-20T01:04:57.656Z,2.83
2023-05-20T01:07:28.632Z,2.63
2023-05-20T01:10:00.593Z,2.30
2023-05-20T01:12:35.566Z,2.35
2023-05-20T01:15:15.773Z,2.53
2023-05-20T01:17:53.439Z,2.47
2023-05-20T01:20:22.325Z,1.92
2023-05-20T01:22:59.424Z,2.63
2023-05-20T01:25:27.157Z,2.33
2023-05-20T01:27:56.952Z,2.45
2023-05-20T01:30:31.533Z,2.40
2023-05-20T01:33:05.683Z,2.10
2023-05-20T01:35:35.268Z,2.47
2023-05-20T01:38:07.820Z,2.28
2023-05-20T01:40:36.052Z,2.20
2023-05-20T01:43:04.865Z,2.72
2023-05-20T01:45:33.202Z,2.60
2023-05-20T01:48:02.400Z,2.33
2023-05-20T01:50:29.632Z,2.70
2023-05-20T01:52:57.164Z,2.20
2023-05-20T01:55:25.767Z,2.50
2023-05-20T01:57:53.888Z,2.55
2023-05-20T02:00:21.808Z,2.20
2023-05-20T02:05:17.304Z,2.03
2023-05-20T02:07:45.589Z,1.95
2023-05-20T02:10:12.893Z,2.35
2023-05-20T02:12:40.906Z,2.63
2023-05-20T02:17:44.212Z,2.03
2023-05-20T02:20:12.542Z,2.38
2023-05-20T02:22:40.111Z,2.00
2023-05-20T02:25:09.243Z,2.78
2023-05-20T02:27:40.069Z,3.00
2023-05-20T02:30:08.518Z,2.80
2023-05-20T02:32:36.104Z,2.38
2023-05-20T02:35:03.035Z,2.20
2023-05-20T02:37:30.591Z,2.43
2023-05-20T02:39:58.159Z,2.20
2023-05-20T02:42:25.129Z,2.58
2023-05-20T02:44:56.963Z,2.27
2023-05-20T02:47:26.691Z,2.42
2023-05-20T02:49:54.069Z,2.50
2023-05-20T02:52:22.125Z,2.40
2023-05-20T02:54:49.196Z,2.65
2023-05-20T02:57:16.610Z,2.43
2023-05-20T02:59:43.517Z,2.22
2023-05-20T03:02:10.376Z,2.65
2023-05-20T03:04:39.202Z,2.25
2023-05-20T03:07:07.915Z,2.50
2023-05-20T03:09:35.671Z,2.10
2023-05-20T03:12:02.587Z,2.58
2023-05-20T03:14:29.585Z,2.20
2023-05-20T03:16:56.373Z,2.17
2023-05-20T03:19:24.361Z,3.10
2023-05-20T03:21:54.193Z,2.58
2023-05-20T03:24:23.682Z,4.25
2023-05-20T03:26:53.794Z,4.57
2023-05-20T03:29:21.496Z,4.70
2023-05-20T03:31:48.690Z,4.85
2023-05-20T03:34:16.162Z,4.45
2023-05-20T03:36:43.042Z,4.05
2023-05-20T03:39:10.360Z,3.95
2023-05-20T03:41:38.545Z,4.15
2023-05-20T03:44:05.856Z,4.10
2023-05-20T03:46:34.852Z,3.38
2023-05-20T03:49:03.387Z,3.08
2023-05-20T03:51:33.369Z,2.95
2023-05-20T03:54:01.635Z,3.08
2023-05-20T03:56:29.000Z,3.13
2023-05-20T03:58:56.085Z,2.90
2023-05-20T04:01:26.015Z,2.90
2023-05-20T04:03:52.891Z,2.83
2023-05-20T04:06:19.921Z,2.88
2023-05-20T04:08:51.274Z,3.10
2023-05-20T04:11:18.596Z,2.90
2023-05-20T04:13:46.534Z,3.10
2023-05-20T04:18:41.211Z,3.00
2023-05-20T04:21:08.686Z,3.08
2023-05-20T04:23:36.476Z,3.40
2023-05-20T04:26:03.766Z,2.83
2023-05-20T04:28:31.503Z,2.63
2023-05-20T04:31:00.358Z,3.08
2023-05-20T04:33:40.008Z,2.70
2023-05-20T04:36:16.574Z,3.30
2023-05-20T04:38:45.434Z,2.63
2023-05-20T04:41:12.358Z,2.88
2023-05-20T04:43:40.850Z,2.67
2023-05-20T04:46:08.030Z,2.85
2023-05-20T04:48:38.098Z,2.53
2023-05-20T04:51:05.005Z,2.58
2023-05-20T04:53:34.304Z,2.70
2023-05-20T04:56:01.423Z,3.33
2023-05-20T04:58:29.759Z,2.60
2023-05-20T05:00:56.840Z,3.45
2023-05-20T05:03:24.020Z,2.63
2023-05-20T05:05:51.198Z,2.78
2023-05-20T05:08:21.208Z,3.20
2023-05-20T05:10:48.170Z,3.22
2023-05-20T05:13:15.680Z,3.08
2023-05-20T05:15:42.524Z,3.17
2023-05-20T05:18:09.873Z,3.57
2023-05-20T05:20:37.013Z,3.45
2023-05-20T05:23:03.956Z,3.15
2023-05-20T05:25:31.262Z,2.80
2023-05-20T05:28:01.579Z,3.47
2023-05-20T05:30:28.746Z,2.85
2023-05-20T05:32:55.652Z,3.05
2023-05-20T05:35:22.599Z,2.83
2023-05-20T05:37:50.478Z,2.88
2023-05-20T05:40:17.709Z,2.67
2023-05-20T05:42:44.867Z,2.80
2023-05-20T05:45:14.776Z,2.72
2023-05-20T05:47:41.588Z,2.80
2023-05-20T05:50:13.430Z,3.00
2023-05-20T05:52:40.360Z,2.75
2023-05-20T05:55:11.090Z,2.60
2023-05-20T05:57:37.930Z,2.70
2023-05-20T06:00:05.970Z,2.43
2023-05-20T06:02:36.986Z,2.95
2023-05-20T06:05:04.708Z,2.65
2023-05-20T06:10:02.436Z,2.88
2023-05-20T06:14:56.359Z,2.70
2023-05-20T06:17:24.432Z,2.83
2023-05-20T06:19:55.117Z,2.80
2023-05-20T06:22:22.676Z,2.65
2023-05-20T06:24:49.471Z,2.85
2023-05-20T06:27:16.670Z,2.83
2023-05-20T06:29:44.048Z,2.45
2023-05-20T06:32:11.257Z,2.63
2023-05-20T06:37:41.798Z,2.17
2023-05-20T06:40:09.924Z,2.72
2023-05-20T06:42:39.775Z,2.50
2023-05-20T06:45:10.963Z,2.60
2023-05-20T06:47:38.193Z,2.72
2023-05-20T06:50:05.607Z,2.67
2023-05-20T06:52:32.793Z,2.28
2023-05-20T06:54:59.560Z,2.20
2023-05-20T06:57:26.735Z,2.70
2023-05-20T06:59:53.461Z,2.42
2023-05-20T07:02:21.617Z,2.47
2023-05-20T07:04:49.380Z,2.50
2023-05-20T07:07:17.439Z,2.60
2023-05-20T07:09:44.468Z,2.38
2023-05-20T07:12:14.484Z,3.20
2023-05-20T07:14:44.801Z,2.40
2023-05-20T07:17:14.471Z,3.30
2023-05-20T07:19:41.720Z,2.42
2023-05-20T07:22:25.886Z,3.00
2023-05-20T07:24:53.623Z,3.15
2023-05-20T07:27:24.218Z,3.42
2023-05-20T07:29:51.535Z,3.03
2023-05-20T07:32:19.192Z,3.50
2023-05-20T07:37:14.624Z,2.63
2023-05-20T07:39:41.724Z,2.55
2023-05-20T07:42:08.637Z,3.08
2023-05-20T07:44:38.742Z,2.97
2023-05-20T07:47:06.474Z,2.75
2023-05-20T07:54:35.367Z,2.80
2023-05-20T07:57:02.271Z,2.97
2023-05-20T07:59:32.297Z,3.10
2023-05-20T08:01:59.255Z,3.08
2023-05-20T08:04:27.919Z,3.00
2023-05-20T08:06:58.129Z,3.05
2023-05-20T08:09:25.053Z,2.75
2023-05-20T08:11:52.099Z,2.90
2023-05-20T08:14:19.640Z,3.03
2023-05-20T08:16:46.785Z,2.83
2023-05-20T08:19:13.998Z,2.72
2023-05-20T08:21:41.104Z,2.75
2023-05-20T08:24:08.351Z,3.35
2023-05-20T08:26:35.604Z,2.78
2023-05-20T08:29:02.453Z,3.03
2023-05-20T08:31:29.546Z,2.70
2023-05-20T08:33:58.743Z,2.70
2023-05-20T08:36:31.937Z,3.00
2023-05-20T08:38:58.678Z,3.20
2023-05-20T08:41:26.005Z,2.93
2023-05-20T08:43:54.235Z,2.92
2023-05-20T08:46:23.188Z,2.90
2023-05-20T08:48:50.660Z,3.05
2023-05-20T08:51:23.645Z,3.05
2023-05-20T08:53:51.367Z,2.85
2023-05-20T08:56:18.447Z,3.10
2023-05-20T08:58:48.355Z,3.13
2023-05-20T09:01:15.264Z,2.70
2023-05-20T09:03:42.302Z,3.63
2023-05-20T09:06:12.701Z,2.67
2023-05-20T09:08:39.782Z,2.53
2023-05-20T09:11:09.809Z,2.50
2023-05-20T09:13:36.675Z,2.50
2023-05-20T09:16:03.918Z,2.58
2023-05-20T09:18:31.615Z,2.58
2023-05-20T09:23:26.078Z,2.88
2023-05-20T09:25:54.854Z,2.72
2023-05-20T09:28:27.945Z,2.80
2023-05-20T09:31:01.659Z,2.53
2023-05-20T09:33:30.360Z,2.55
2023-05-20T09:36:16.400Z,2.60
2023-05-20T09:38:45.653Z,2.70
2023-05-20T09:41:14.192Z,2.35
2023-05-20T09:43:45.846Z,2.28
2023-05-20T09:46:13.732Z,2.13
2023-05-20T09:48:41.184Z,2.67
2023-05-20T09:51:11.136Z,2.55
2023-05-20T09:53:38.083Z,2.10
2023-05-20T09:56:05.659Z,2.45
2023-05-20T09:58:36.300Z,3.15
2023-05-20T10:01:06.910Z,3.38
2023-05-20T10:03:34.462Z,3.47
2023-05-20T10:06:07.638Z,3.63
2023-05-20T10:09:01.165Z,2.72
2023-05-20T10:11:34.037Z,2.83
2023-05-20T10:14:19.078Z,2.50
2023-05-20T10:16:56.867Z,2.80
2023-05-20T10:19:35.966Z,2.38
2023-05-20T10:22:05.431Z,2.63
2023-05-20T10:24:41.536Z,2.08
2023-05-20T10:27:15.128Z,2.50
2023-05-20T10:30:00.968Z,2.40
2023-05-20T10:32:33.333Z,2.90
2023-05-20T10:35:05.591Z,2.53
2023-05-20T10:37:42.687Z,2.60
2023-05-20T10:40:15.189Z,2.28
2023-05-20T10:42:43.170Z,3.47
2023-05-20T10:45:10.961Z,3.45
2023-05-20T10:47:42.437Z,2.67
2023-05-20T10:50:28.038Z,2.33
2023-05-20T10:52:56.713Z,2.85
2023-05-20T10:55:23.930Z,2.83
2023-05-20T10:57:51.796Z,2.60
2023-05-20T11:00:22.118Z,2.60
2023-05-20T11:02:50.333Z,2.42
2023-05-20T11:05:18.211Z,2.50
2023-05-20T11:07:45.589Z,2.70
2023-05-20T11:10:12.530Z,2.47
2023-05-20T11:12:39.946Z,2.78
2023-05-20T11:15:12.462Z,2.80
2023-05-20T11:17:40.108Z,2.40
2023-05-20T11:20:08.032Z,2.80
2023-05-20T11:22:34.876Z,2.65
2023-05-20T11:25:08.201Z,2.60
2023-05-20T11:27:39.837Z,2.53
2023-05-20T11:30:08.062Z,2.75
2023-05-20T11:32:35.224Z,2.53
2023-05-20T11:35:10.094Z,2.17
2023-05-20T11:37:37.828Z,2.05
2023-05-20T11:40:10.173Z,2.08
2023-05-20T11:42:37.326Z,2.30
2023-05-20T11:45:04.463Z,2.20
2023-05-20T11:47:32.698Z,2.28
2023-05-20T11:49:59.912Z,2.00
2023-05-20T11:52:29.317Z,2.20
2023-05-20T11:54:57.108Z,2.20
2023-05-20T11:57:24.152Z,2.08
2023-05-20T11:59:51.263Z,2.13
2023-05-20T12:02:18.229Z,2.50
2023-05-20T12:04:45.199Z,2.50
2023-05-20T12:07:12.023Z,1.88
2023-05-20T12:09:38.803Z,2.30
2023-05-20T12:12:05.962Z,2.40
2023-05-20T12:14:33.021Z,2.30
2023-05-20T12:17:04.672Z,2.38
2023-05-20T12:19:33.693Z,2.45
2023-05-20T12:22:02.984Z,2.15
2023-05-20T12:24:30.037Z,2.05
2023-05-20T12:26:57.010Z,2.63
2023-05-20T12:29:25.205Z,2.72
2023-05-20T12:31:52.792Z,2.50
2023-05-20T12:34:19.570Z,2.60
2023-05-20T12:36:47.430Z,2.53
2023-05-20T12:39:18.094Z,2.40
2023-05-20T12:41:44.899Z,2.20
2023-05-20T12:44:11.669Z,2.22
2023-05-20T12:46:38.538Z,2.42
2023-05-20T12:49:05.481Z,2.67
2023-05-20T12:51:32.217Z,2.35
2023-05-20T12:53:59.408Z,2.40
2023-05-20T12:56:27.710Z,2.70
2023-05-20T12:58:54.702Z,2.53
2023-05-20T13:01:21.534Z,2.50
2023-05-20T13:03:52.959Z,2.38
2023-05-20T13:06:20.169Z,2.60
2023-05-20T13:08:46.960Z,2.83
2023-05-20T13:11:14.297Z,2.60
2023-05-20T13:13:41.735Z,3.78
2023-05-20T13:16:10.434Z,2.70
2023-05-20T13:18:37.366Z,2.42
2023-05-20T13:21:04.290Z,2.75
2023-05-20T13:23:31.137Z,2.92
2023-05-20T13:25:58.264Z,3.10
2023-05-20T13:28:25.074Z,2.88
2023-05-20T13:30:52.230Z,3.55
2023-05-20T13:33:19.199Z,2.60
2023-05-20T13:35:46.432Z,2.65
2023-05-20T13:38:13.440Z,2.85
2023-05-20T13:40:40.497Z,2.50
2023-05-20T13:43:07.373Z,3.20
2023-05-20T13:45:36.348Z,2.92
2023-05-20T13:48:03.551Z,2.53
2023-05-20T13:50:32.914Z,2.78
2023-05-20T13:53:00.054Z,2.60
2023-05-20T13:55:44.244Z,2.25
2023-05-20T13:58:15.148Z,2.40
2023-05-20T14:00:42.602Z,2.50
2023-05-20T14:05:41.070Z,2.20
2023-05-20T14:08:08.506Z,2.90
2023-05-20T14:13:03.114Z,2.38
2023-05-20T14:15:33.029Z,3.17
2023-05-20T14:18:00.071Z,2.60
2023-05-20T14:20:27.017Z,2.80
2023-05-20T14:22:53.920Z,2.95
2023-05-20T14:25:20.864Z,2.90
2023-05-20T14:27:48.415Z,3.05
2023-05-20T14:32:47.315Z,2.65
2023-05-20T14:35:14.377Z,3.10
2023-05-20T14:37:41.901Z,1.73
2023-05-20T14:40:09.227Z,1.48
2023-05-20T14:42:46.158Z,1.88
2023-05-20T14:45:13.857Z,1.38
2023-05-20T14:47:41.198Z,1.45
2023-05-20T14:50:08.685Z,1.40
2023-05-20T14:52:35.918Z,1.50
2023-05-20T14:55:03.139Z,1.42
2023-05-20T14:57:30.075Z,1.58
2023-05-20T15:00:00.181Z,1.70
2023-05-20T15:02:27.603Z,2.10
2023-05-20T15:04:55.113Z,1.80
2023-05-20T15:07:23.011Z,2.20
2023-05-20T15:09:50.232Z,2.17
2023-05-20T15:12:17.778Z,2.25
2023-05-20T15:14:45.266Z,1.92
2023-05-20T15:17:18.673Z,1.58
2023-05-20T15:19:55.601Z,1.95
2023-05-20T15:22:23.083Z,2.00
2023-05-20T15:24:50.574Z,2.20
2023-05-20T15:27:18.178Z,2.10
2023-05-20T15:29:53.013Z,2.60
2023-05-20T15:32:22.178Z,2.33
2023-05-20T15:34:50.774Z,1.88
2023-05-20T15:37:24.733Z,2.22
2023-05-20T15:39:52.466Z,2.17
2023-05-20T15:45:02.597Z,1.92
2023-05-20T15:47:39.162Z,2.30
2023-05-20T15:50:12.922Z,2.20
2023-05-20T15:52:41.168Z,2.22
2023-05-20T15:55:09.890Z,2.25
2023-05-20T15:57:38.362Z,2.30
2023-05-20T16:00:13.369Z,2.38
2023-05-20T16:02:47.470Z,2.38
2023-05-20T16:05:17.117Z,1.90
2023-05-20T16:07:48.492Z,2.05
2023-05-20T16:10:20.088Z,2.10
2023-05-20T16:12:57.452Z,2.25
2023-05-20T16:15:28.346Z,2.20
2023-05-20T16:17:56.766Z,2.80
2023-05-20T16:20:24.776Z,2.28
2023-05-20T16:23:02.534Z,2.55
2023-05-20T16:25:35.879Z,2.15
2023-05-20T16:28:17.542Z,2.33
2023-05-20T16:30:51.642Z,2.50
2023-05-20T16:33:22.504Z,2.55
2023-05-20T16:35:50.209Z,2.60
2023-05-20T16:38:25.688Z,2.28
2023-05-20T16:40:54.026Z,2.55
2023-05-20T16:43:59.234Z,2.35
2023-05-20T16:46:35.061Z,2.42
2023-05-20T16:49:02.802Z,2.75
2023-05-20T16:54:03.621Z,2.08
2023-05-20T16:56:31.609Z,2.40
2023-05-20T16:59:00.159Z,2.15
2023-05-20T17:01:42.237Z,2.65
2023-05-20T17:04:16.209Z,2.42
2023-05-20T17:06:46.574Z,3.05
2023-05-20T17:09:14.066Z,3.80
2023-05-20T17:11:47.944Z,3.40
2023-05-20T17:14:15.397Z,3.83
2023-05-20T17:16:47.080Z,4.53
2023-05-20T17:19:25.276Z,4.20
2023-05-20T17:21:55.579Z,3.70
2023-05-20T17:24:25.740Z,3.50
2023-05-20T17:26:53.278Z,3.72
2023-05-20T17:29:20.892Z,3.85
2023-05-20T17:31:47.846Z,3.58
2023-05-20T17:34:17.781Z,3.67
2023-05-20T17:36:48.500Z,3.30
2023-05-20T17:39:17.110Z,3.08
2023-05-20T17:41:44.580Z,3.17
2023-05-20T17:44:11.759Z,2.78
2023-05-20T17:46:39.278Z,2.85
2023-05-20T17:49:06.782Z,3.10
2023-05-20T17:51:34.803Z,3.28
2023-05-20T17:54:02.137Z,2.50
2023-05-20T17:56:29.845Z,2.78
2023-05-20T17:58:58.006Z,2.58
2023-05-20T18:01:42.854Z,3.40
2023-05-20T18:04:19.241Z,3.28
2023-05-20T18:06:46.692Z,3.33
2023-05-20T18:09:14.218Z,3.67
2023-05-20T18:11:48.089Z,3.60
2023-05-20T18:14:17.336Z,13.82
2023-05-20T18:16:49.236Z,8.30
2023-05-20T18:19:19.838Z,4.63
2023-05-20T18:21:47.965Z,4.53
2023-05-20T18:24:17.175Z,3.53
2023-05-20T18:26:45.508Z,3.80
2023-05-20T18:29:23.581Z,3.47
2023-05-20T18:31:54.188Z,3.17
2023-05-20T18:34:24.263Z,3.50
2023-05-20T18:36:52.063Z,2.97
2023-05-20T18:41:55.607Z,2.97
2023-05-20T18:44:23.364Z,3.80
2023-05-20T18:46:54.589Z,2.95
2023-05-20T18:49:22.369Z,3.15
2023-05-20T18:51:50.671Z,3.35
2023-05-20T18:54:21.386Z,2.90
2023-05-20T18:56:49.877Z,3.33
2023-05-20T18:59:18.335Z,3.30
2023-05-20T19:01:45.915Z,3.30
2023-05-20T19:04:14.346Z,4.20
2023-05-20T19:06:54.567Z,3.97
2023-05-20T19:09:34.229Z,3.60
2023-05-20T19:12:14.546Z,3.20
2023-05-20T19:14:46.189Z,2.85
2023-05-20T19:17:18.479Z,3.72
2023-05-20T19:19:49.473Z,3.25
2023-05-20T19:22:18.003Z,3.13
2023-05-20T19:25:04.921Z,4.35
2023-05-20T19:27:38.508Z,4.15
2023-05-20T19:30:11.025Z,3.35
2023-05-20T19:32:48.428Z,3.22
2023-05-20T19:35:22.073Z,3.67
2023-05-20T19:37:52.325Z,3.53
2023-05-20T19:40:28.065Z,3.22
2023-05-20T19:43:05.114Z,3.60
2023-05-20T19:45:39.522Z,2.97
2023-05-20T19:48:08.051Z,3.45
2023-05-20T19:50:39.455Z,3.42
2023-05-20T19:53:08.049Z,3.40
2023-05-20T19:55:36.825Z,3.45
2023-05-20T19:58:08.079Z,4.07
2023-05-20T20:00:43.999Z,3.85
2023-05-20T20:03:12.708Z,3.50
2023-05-20T20:05:46.547Z,3.28
2023-05-20T20:08:24.853Z,2.78
2023-05-20T20:10:56.282Z,3.17
2023-05-20T20:13:24.564Z,2.88
2023-05-20T20:18:40.660Z,3.13
2023-05-20T20:21:11.291Z,2.92
2023-05-20T20:23:43.436Z,3.00
2023-05-20T20:26:14.140Z,3.20
2023-05-20T20:28:52.070Z,3.40
2023-05-20T20:31:18.844Z,2.85
2023-05-20T20:33:49.218Z,2.90
2023-05-20T20:36:17.498Z,3.05
2023-05-20T20:38:47.366Z,2.97
2023-05-20T20:41:17.717Z,2.75
2023-05-20T20:43:45.739Z,3.03
2023-05-20T20:46:16.159Z,2.90
2023-05-20T20:48:48.081Z,2.90
2023-05-20T20:51:27.912Z,3.05
2023-05-20T20:53:55.872Z,3.08
2023-05-20T20:58:54.510Z,2.58
2023-05-20T21:03:48.649Z,2.75
2023-05-20T21:06:16.126Z,3.20
2023-05-20T21:08:44.050Z,3.25
2023-05-20T21:13:39.948Z,2.88
2023-05-20T21:16:10.830Z,3.33
2023-05-20T21:18:41.645Z,3.42
2023-05-20T21:21:13.153Z,3.45
2023-05-20T21:23:40.931Z,3.42
2023-05-20T21:26:14.034Z,3.33
2023-05-20T21:28:41.386Z,3.25
2023-05-20T21:31:09.073Z,3.63
2023-05-20T21:36:04.397Z,2.65
2023-05-20T21:38:34.767Z,3.47
2023-05-20T21:41:08.466Z,3.08
2023-05-20T21:43:48.682Z,2.78
2023-05-20T21:46:34.514Z,3.10
2023-05-20T21:49:01.624Z,3.20
2023-05-20T21:51:29.581Z,3.03
2023-05-20T21:56:24.561Z,2.92
2023-05-20T21:58:54.687Z,3.08
2023-05-20T22:01:21.808Z,3.10
2023-05-20T22:03:51.481Z,2.70
2023-05-20T22:06:22.612Z,2.80
2023-05-20T22:08:50.138Z,3.20
2023-05-20T22:11:17.572Z,2.80
2023-05-20T22:13:46.075Z,3.40
2023-05-20T22:16:14.720Z,3.30
2023-05-20T22:18:43.618Z,2.80
2023-05-20T22:21:12.273Z,3.30
2023-05-20T22:23:41.168Z,2.88
2023-05-20T22:26:12.025Z,3.00
2023-05-20T22:28:39.879Z,2.80
2023-05-20T22:36:05.194Z,2.17
2023-05-20T22:38:33.322Z,2.95
2023-05-20T22:41:01.321Z,2.75
2023-05-20T22:43:29.651Z,2.67
2023-05-20T22:48:25.016Z,2.38
2023-05-20T22:53:23.979Z,2.47
2023-05-20T22:55:51.937Z,3.00
2023-05-20T23:00:46.556Z,2.00
2023-05-20T23:03:13.994Z,2.33
2023-05-20T23:05:40.749Z,2.58
2023-05-20T23:08:07.746Z,2.80
2023-05-20T23:10:37.953Z,2.70
2023-05-20T23:13:05.281Z,2.35
2023-05-20T23:15:32.836Z,2.70
2023-05-20T23:17:59.847Z,2.28
2023-05-20T23:20:29.852Z,2.28
2023-05-20T23:22:58.003Z,3.05
2023-05-20T23:25:25.565Z,2.63
2023-05-20T23:27:53.783Z,2.47
2023-05-20T23:30:23.234Z,2.85
2023-05-20T23:33:25.190Z,2.70
2023-05-20T23:35:56.810Z,2.85
2023-05-20T23:38:27.583Z,3.30
2023-05-20T23:40:55.720Z,2.92
2023-05-20T23:43:22.758Z,2.80
2023-05-20T23:46:00.349Z,2.58
2023-05-20T23:48:28.062Z,2.80
2023-05-20T23:50:57.832Z,3.05
2023-05-20T23:53:26.233Z,2.83
2023-05-20T23:55:54.442Z,2.90
2023-05-20T23:58:22.557Z,3.00
